Pagrindinis puslapis
METAR-TAF:

METAR-TAF

Oro uostai :

Resifė, Pernambuco, Brazilija

platuma: 08-08S, ilguma: 034-55W, Aukštis: 19 m

Dabartinis oras

Ataskaita buvo paskelbta 12 minutes, ne 21:00 UTC
Vėjas 7 kt iš Rytų
Temperatūra 28°C
Drėgmė 62%
Slėgis 1010 hPa
Matomumas 10 km arba daugiau
Mažai debesys ne aukštis 2500 ft

METAR: SBRF 122100Z 10007KT 9999 FEW025 28/20 Q1010

Laikas: 18:12 (21:12 UTC)

Prognozė

Ataskaita buvo paskelbta 5 valandos ir 12 minutes, ne 16:00 UTC
Prognozė galioja nuo 12 metu 18 UTC su 13 metu 18 UTC
Vėjas 10 kt iš Rytų/Pietryčių
Matomumas 10 km arba daugiau
Išsisklaidę debesys ne aukštis 2300 ft
Tapsmas
nuo 12 metu 22 UTC su 12 metu 24 UTC
Vėjas 5 kt iš Rytų
Tapsmas
nuo 13 metu 02 UTC su 13 metu 04 UTC
Vėjas 8 kt iš Rytų/Pietryčių

TAF: SBRF 121600Z 1218/1318 12010KT 9999 SCT023 TN27/1302Z TX30/1314Z BECMG 1222/1224 09005KT BECMG 1302/1304 12008KT RMK PEH

Orai ataskaitas ir orų prognozės (METAR, TAF).

turimą stotys yra geltonos ir raudonos taškus žemėlapyje.

Perkelti pele per norėdami pamatyti stoties vardą.

Tada spustelėkite, norėdami matyti oro stebėjimo ir prognozės.

Norėdami pakeisti žemėlapį: spustelėkite ant žalios mygtukų su juodo kryžiaus žemyn,; žalią mygtuką su brūkšneliu, jei norite nutolinti; arba žalių rodyklių gretimoms žemėlapius.


METAR-TAF: